Time;durP1;ratioP1;P1;durP2;ratioP2;P2;SDS_P1;SDS_P2;PMS_P1;PMS_P2;Temp;Humidity;BMP_temperature;BMP_pressure;BME280_temperature;BME280_humidity;BME280_pressure;Samples;Min_cycle;Max_cycle;Signal;HPM_P1;HPM_P2
2022/08/12 00:44:44;;;;;;;3.00;2.80;;;;;;;;;;5072158;28;25004;-44
2022/08/12 00:47:10;;;;;;;3.10;2.80;;;;;;;;;;5075788;28;24510;-46
2022/08/12 00:49:36;;;;;;;3.40;3.10;;;;;;;;;;5071122;28;24410;-46
2022/08/12 00:52:05;;;;;;;2.90;2.70;;;;;;;;;;5081388;28;24411;-47
2022/08/12 00:54:30;;;;;;;3.47;2.90;;;;;;;;;;5079183;28;24414;-46
2022/08/12 00:56:57;;;;;;;3.05;2.85;;;;;;;;;;5082456;28;24885;-46
2022/08/12 00:59:22;;;;;;;2.92;2.72;;;;;;;;;;5073654;28;24786;-47
2022/08/12 01:01:48;;;;;;;3.57;3.00;;;;;;;;;;5076548;28;24924;-47
2022/08/12 01:12:31;;;;;;;3.30;3.00;;;;;;;;;;5081953;28;24425;-46
2022/08/12 01:14:56;;;;;;;3.10;2.80;;;;;;;;;;5080841;28;24827;-47
2022/08/12 01:17:21;;;;;;;3.60;3.30;;;;;;;;;;5088472;28;24467;-47
2022/08/12 01:19:49;;;;;;;3.40;3.00;;;;;;;;;;5086382;28;24972;-45
2022/08/12 01:22:22;;;;;;;3.00;2.80;;;;;;;;;;5077492;28;24778;-45
2022/08/12 01:25:06;;;;;;;3.05;2.85;;;;;;;;;;5067297;28;24430;-46
2022/08/12 01:27:33;;;;;;;3.15;2.92;;;;;;;;;;5078895;28;24427;-46
2022/08/12 01:29:58;;;;;;;3.88;3.10;;;;;;;;;;5077169;28;24426;-46
2022/08/12 01:32:25;;;;;;;3.30;3.10;;;;;;;;;;5075798;28;24410;-47
2022/08/12 01:35:02;;;;;;;3.38;3.08;;;;;;;;;;5084963;28;25239;-46
2022/08/12 01:37:29;;;;;;;4.00;3.15;;;;;;;;;;5085279;28;25080;-47
2022/08/12 01:39:56;;;;;;;3.60;3.30;;;;;;;;;;5071999;28;24991;-47
2022/08/12 01:42:21;;;;;;;3.85;3.55;;;;;;;;;;5074508;28;25322;-47
2022/08/12 01:44:48;;;;;;;3.70;3.40;;;;;;;;;;5088322;28;24500;-47
2022/08/12 01:47:24;;;;;;;3.70;3.40;;;;;;;;;;5076905;28;24441;-46
2022/08/12 01:50:10;;;;;;;4.25;3.70;;;;;;;;;;5081916;28;24476;-46
2022/08/12 01:52:50;;;;;;;3.55;3.25;;;;;;;;;;5071300;28;24475;-46
2022/08/12 01:55:18;;;;;;;3.90;3.40;;;;;;;;;;5078171;28;24425;-46
2022/08/12 01:57:49;;;;;;;4.35;3.22;;;;;;;;;;5073978;28;24430;-47
2022/08/12 02:00:15;;;;;;;3.45;3.25;;;;;;;;;;5072214;28;24957;-47
2022/08/12 02:03:11;;;;;;;3.60;3.30;;;;;;;;;;5082930;28;24464;-46
2022/08/12 02:12:00;;;;;;;3.70;3.40;;;;;;;;;;5084711;28;24425;-46
2022/08/12 02:14:45;;;;;;;3.90;3.60;;;;;;;;;;5083134;28;24972;-46
2022/08/12 02:17:36;;;;;;;3.20;3.00;;;;;;;;;;5077319;28;24488;-46
2022/08/12 02:20:04;;;;;;;3.22;2.92;;;;;;;;;;5087482;28;24943;-46
2022/08/12 02:22:32;;;;;;;3.95;3.17;;;;;;;;;;5080154;28;24420;-46
2022/08/12 02:25:09;;;;;;;3.80;3.20;;;;;;;;;;5075412;28;24423;-46
2022/08/12 02:27:38;;;;;;;3.20;3.00;;;;;;;;;;5082913;28;24487;-46
2022/08/12 02:30:04;;;;;;;3.75;2.90;;;;;;;;;;5077780;28;24928;-46
2022/08/12 02:32:33;;;;;;;3.20;2.90;;;;;;;;;;5079965;28;24874;-46
2022/08/12 02:34:59;;;;;;;4.07;3.25;;;;;;;;;;5079476;28;24418;-46
2022/08/12 02:37:25;;;;;;;3.50;3.20;;;;;;;;;;5076956;28;24430;-47
2022/08/12 02:39:52;;;;;;;3.70;3.40;;;;;;;;;;5066660;28;24491;-47
2022/08/12 02:42:19;;;;;;;3.65;3.35;;;;;;;;;;5083993;28;24430;-46
2022/08/12 02:44:47;;;;;;;3.20;3.00;;;;;;;;;;5067120;28;24484;-46
2022/08/12 02:47:14;;;;;;;3.60;3.30;;;;;;;;;;5069827;28;24542;-46
2022/08/12 02:49:43;;;;;;;3.40;3.10;;;;;;;;;;5070227;28;24511;-46
2022/08/12 02:52:09;;;;;;;3.40;3.10;;;;;;;;;;5080454;28;24522;-47
2022/08/12 02:54:34;;;;;;;3.40;3.10;;;;;;;;;;5079116;28;24446;-47
2022/08/12 02:56:59;;;;;;;3.50;3.20;;;;;;;;;;5070771;28;24533;-47
2022/08/12 02:59:25;;;;;;;3.40;3.10;;;;;;;;;;5080749;28;24481;-46
2022/08/12 03:01:52;;;;;;;4.10;3.80;;;;;;;;;;5068046;28;24413;-46
2022/08/12 03:04:21;;;;;;;3.67;3.30;;;;;;;;;;5073500;28;24430;-46
2022/08/12 03:07:04;;;;;;;4.10;3.80;;;;;;;;;;5078262;28;24996;-46
2022/08/12 03:09:31;;;;;;;4.00;3.70;;;;;;;;;;5076532;28;24461;-46
2022/08/12 03:12:03;;;;;;;3.40;3.10;;;;;;;;;;5087218;28;25042;-46
2022/08/12 03:14:32;;;;;;;3.33;3.03;;;;;;;;;;5088665;28;24525;-47
2022/08/12 03:17:08;;;;;;;3.30;3.00;;;;;;;;;;5077184;28;24520;-47
2022/08/12 03:19:35;;;;;;;3.53;3.20;;;;;;;;;;5076440;28;24427;-46
2022/08/12 03:22:11;;;;;;;3.00;2.80;;;;;;;;;;5084177;28;24813;-46
2022/08/12 03:24:37;;;;;;;3.50;3.20;;;;;;;;;;5085444;28;24502;-46
2022/08/12 03:27:06;;;;;;;3.28;2.97;;;;;;;;;;5087452;28;24497;-46
2022/08/12 03:29:34;;;;;;;2.85;2.65;;;;;;;;;;5086224;28;24461;-46
2022/08/12 03:32:01;;;;;;;3.50;3.20;;;;;;;;;;5078006;28;24509;-46
2022/08/12 03:34:28;;;;;;;3.10;2.90;;;;;;;;;;5084990;28;24421;-46
2022/08/12 03:36:55;;;;;;;3.30;3.00;;;;;;;;;;5071413;28;24418;-47
2022/08/12 03:39:32;;;;;;;4.00;3.50;;;;;;;;;;5073645;28;24964;-47
2022/08/12 03:42:08;;;;;;;3.45;3.22;;;;;;;;;;5085456;28;24805;-46
2022/08/12 04:01:21;;;;;;;3.50;3.30;;;;;;;;;;5076329;28;24774;-47
2022/08/12 04:03:52;;;;;;;3.50;3.20;;;;;;;;;;5071372;28;24418;-47
2022/08/12 04:06:19;;;;;;;3.78;3.47;;;;;;;;;;5079384;28;24518;-47
2022/08/12 04:08:46;;;;;;;4.90;3.90;;;;;;;;;;5078762;28;24517;-47
2022/08/12 04:14:04;;;;;;;3.72;3.35;;;;;;;;;;5074452;28;24986;-47
2022/08/12 04:16:29;;;;;;;4.32;3.30;;;;;;;;;;5079314;28;24998;-48
2022/08/12 04:18:54;;;;;;;3.77;3.47;;;;;;;;;;5075900;28;24438;-46
2022/08/12 04:21:19;;;;;;;3.90;3.60;;;;;;;;;;5075371;28;24419;-47
2022/08/12 04:23:45;;;;;;;6.30;3.67;;;;;;;;;;5071613;28;24426;-46
2022/08/12 04:26:10;;;;;;;3.83;3.50;;;;;;;;;;5076195;28;24423;-46
2022/08/12 04:28:35;;;;;;;4.20;3.90;;;;;;;;;;5073988;28;24445;-46
2022/08/12 04:31:00;;;;;;;4.60;3.50;;;;;;;;;;5062132;28;25363;-46
2022/08/12 04:33:26;;;;;;;4.00;3.60;;;;;;;;;;5068823;28;24425;-46
2022/08/12 04:35:51;;;;;;;4.50;4.10;;;;;;;;;;5080183;28;24973;-46
2022/08/12 04:38:17;;;;;;;3.83;3.53;;;;;;;;;;5071359;28;24430;-46
2022/08/12 04:40:44;;;;;;;4.28;3.88;;;;;;;;;;5083830;28;24599;-46
2022/08/12 04:43:09;;;;;;;5.23;3.90;;;;;;;;;;5072331;28;24430;-56
2022/08/12 04:45:36;;;;;;;3.80;3.38;;;;;;;;;;5070382;28;24425;-46
2022/08/12 04:48:01;;;;;;;4.13;3.50;;;;;;;;;;5081998;28;24500;-46
2022/08/12 04:50:27;;;;;;;5.80;4.13;;;;;;;;;;5068256;28;25064;-46
2022/08/12 04:52:52;;;;;;;6.10;3.90;;;;;;;;;;5068183;28;24426;-46
2022/08/12 04:55:17;;;;;;;7.20;3.60;;;;;;;;;;5080780;28;24433;-46
2022/08/12 04:57:43;;;;;;;4.80;3.70;;;;;;;;;;5074819;28;24448;-46
2022/08/12 05:00:09;;;;;;;3.77;3.47;;;;;;;;;;5084953;28;24383;-47
2022/08/12 05:02:34;;;;;;;3.80;3.50;;;;;;;;;;5080971;28;24533;-47
2022/08/12 05:05:00;;;;;;;5.83;3.80;;;;;;;;;;5075881;28;24568;-47
2022/08/12 05:07:26;;;;;;;3.95;3.53;;;;;;;;;;5076175;28;24469;-47
2022/08/12 05:09:51;;;;;;;3.60;3.30;;;;;;;;;;5076795;28;25021;-45
2022/08/12 05:12:18;;;;;;;5.50;3.60;;;;;;;;;;5069905;28;24439;-46
2022/08/12 05:14:43;;;;;;;3.85;3.55;;;;;;;;;;5070072;28;24970;-45
2022/08/12 05:17:08;;;;;;;3.80;3.50;;;;;;;;;;5062855;28;24410;-46
2022/08/12 05:19:34;;;;;;;4.82;3.83;;;;;;;;;;5069782;28;24429;-46
2022/08/12 05:21:59;;;;;;;4.80;3.80;;;;;;;;;;5084326;28;24487;-46
2022/08/12 05:24:24;;;;;;;4.30;3.93;;;;;;;;;;5082649;28;24433;-47
2022/08/12 05:26:51;;;;;;;3.90;3.60;;;;;;;;;;5068172;28;24501;-46
2022/08/12 05:29:16;;;;;;;4.40;3.80;;;;;;;;;;5082618;28;24481;-46
2022/08/12 05:31:42;;;;;;;4.07;3.60;;;;;;;;;;5076123;28;24442;-46
2022/08/12 05:34:07;;;;;;;3.60;3.30;;;;;;;;;;5074164;28;25090;-45
2022/08/12 05:36:32;;;;;;;3.90;3.50;;;;;;;;;;5066185;28;24430;-45
2022/08/12 05:38:58;;;;;;;4.53;3.40;;;;;;;;;;5065960;28;24504;-45
2022/08/12 05:41:24;;;;;;;3.90;3.00;;;;;;;;;;5070986;28;24967;-45
2022/08/12 05:43:53;;;;;;;4.47;3.42;;;;;;;;;;5070488;28;24457;-46
2022/08/12 05:46:19;;;;;;;3.40;3.10;;;;;;;;;;5074212;28;24437;-47
2022/08/12 05:48:44;;;;;;;3.60;3.20;;;;;;;;;;5076336;28;24921;-45
2022/08/12 05:51:10;;;;;;;4.03;3.70;;;;;;;;;;5082841;28;24457;-47
2022/08/12 05:53:35;;;;;;;3.70;3.40;;;;;;;;;;5071818;28;24426;-47
2022/08/12 05:56:00;;;;;;;4.40;3.50;;;;;;;;;;5072332;28;24433;-47
2022/08/12 05:58:25;;;;;;;3.15;2.85;;;;;;;;;;5078046;28;24433;-47
2022/08/12 06:00:51;;;;;;;3.80;3.40;;;;;;;;;;5069644;28;24532;-46
2022/08/12 06:03:16;;;;;;;3.25;3.05;;;;;;;;;;5072214;28;24781;-46
2022/08/12 06:05:43;;;;;;;4.10;3.40;;;;;;;;;;5073940;28;24426;-46
2022/08/12 06:08:08;;;;;;;4.60;3.80;;;;;;;;;;5073877;28;24531;-47
2022/08/12 06:10:34;;;;;;;3.50;3.20;;;;;;;;;;5087386;28;24924;-48
2022/08/12 06:13:03;;;;;;;4.63;3.30;;;;;;;;;;5079318;28;24955;-46
2022/08/12 06:15:29;;;;;;;3.35;3.00;;;;;;;;;;5075862;28;24414;-46
2022/08/12 06:18:04;;;;;;;3.70;3.10;;;;;;;;;;5068974;28;24406;-47
2022/08/12 06:20:29;;;;;;;3.58;3.28;;;;;;;;;;5076181;28;24429;-46
2022/08/12 06:22:54;;;;;;;3.70;3.40;;;;;;;;;;5067366;28;24486;-46
2022/08/12 06:25:19;;;;;;;3.70;3.30;;;;;;;;;;5073545;28;24433;-47
2022/08/12 06:27:47;;;;;;;5.07;3.77;;;;;;;;;;5084768;28;24493;-46
2022/08/12 06:30:14;;;;;;;3.50;3.25;;;;;;;;;;5073959;28;24944;-47
2022/08/12 06:32:39;;;;;;;3.40;3.10;;;;;;;;;;5084410;28;24752;-47
2022/08/12 06:35:05;;;;;;;3.67;3.30;;;;;;;;;;5086971;28;24992;-47
2022/08/12 06:37:37;;;;;;;3.92;3.58;;;;;;;;;;5081149;28;24430;-47
2022/08/12 06:40:02;;;;;;;4.07;3.10;;;;;;;;;;5064627;28;24474;-47
2022/08/12 06:45:11;;;;;;;3.22;2.92;;;;;;;;;;5071147;28;24425;-46
2022/08/12 06:47:37;;;;;;;3.58;3.28;;;;;;;;;;5077307;28;24462;-46
2022/08/12 06:50:02;;;;;;;3.50;3.20;;;;;;;;;;5065547;28;24414;-47
2022/08/12 06:52:30;;;;;;;3.60;3.30;;;;;;;;;;5069665;28;24554;-46
2022/08/12 06:54:57;;;;;;;3.80;3.42;;;;;;;;;;5066567;28;24390;-47
2022/08/12 06:57:26;;;;;;;4.00;3.50;;;;;;;;;;5074490;28;24422;-46
2022/08/12 06:59:51;;;;;;;3.60;3.30;;;;;;;;;;5086312;28;24390;-47
2022/08/12 07:02:19;;;;;;;4.43;3.30;;;;;;;;;;5075984;28;24777;-47
2022/08/12 07:04:46;;;;;;;4.68;3.20;;;;;;;;;;5066614;28;24395;-46
2022/08/12 07:07:11;;;;;;;3.90;3.50;;;;;;;;;;5065194;28;24589;-46
2022/08/12 07:09:37;;;;;;;3.60;3.30;;;;;;;;;;5080425;28;24522;-46
2022/08/12 07:12:02;;;;;;;3.30;3.00;;;;;;;;;;5075867;28;24971;-46
2022/08/12 07:14:28;;;;;;;3.40;3.20;;;;;;;;;;5063721;28;24403;-47
2022/08/12 07:16:55;;;;;;;3.40;3.10;;;;;;;;;;5063500;28;24793;-46
2022/08/12 07:19:20;;;;;;;4.35;3.95;;;;;;;;;;5065238;28;24414;-46
2022/08/12 07:21:46;;;;;;;3.83;3.50;;;;;;;;;;5065618;28;24425;-47
2022/08/12 07:24:12;;;;;;;3.30;3.10;;;;;;;;;;5064336;28;24418;-46
2022/08/12 07:26:40;;;;;;;3.80;3.40;;;;;;;;;;5065713;28;24472;-47
2022/08/12 07:29:05;;;;;;;3.70;3.40;;;;;;;;;;5064139;28;24413;-47
2022/08/12 07:31:30;;;;;;;5.20;3.90;;;;;;;;;;5065313;28;24426;-46
2022/08/12 07:33:55;;;;;;;3.60;3.30;;;;;;;;;;5064143;28;24485;-46
2022/08/12 07:36:21;;;;;;;4.75;3.60;;;;;;;;;;5066193;28;24391;-46
2022/08/12 07:38:47;;;;;;;4.40;3.40;;;;;;;;;;5066436;28;24839;-46
2022/08/12 07:41:19;;;;;;;4.10;3.20;;;;;;;;;;5065193;28;24430;-46
2022/08/12 07:43:46;;;;;;;3.80;3.50;;;;;;;;;;5063625;28;24936;-46
2022/08/12 07:46:13;;;;;;;3.80;3.50;;;;;;;;;;5065621;28;25222;-45
2022/08/12 07:48:41;;;;;;;3.40;3.10;;;;;;;;;;5064611;28;24445;-47
2022/08/12 07:51:06;;;;;;;4.28;3.20;;;;;;;;;;5065647;28;24426;-47
2022/08/12 07:53:31;;;;;;;4.23;3.10;;;;;;;;;;5065720;28;24972;-47
2022/08/12 07:55:57;;;;;;;4.10;3.50;;;;;;;;;;5065496;28;24430;-47
2022/08/12 07:58:25;;;;;;;3.30;3.00;;;;;;;;;;5066727;28;24973;-46
2022/08/12 08:00:51;;;;;;;4.10;3.30;;;;;;;;;;5068160;28;24531;-45
2022/08/12 08:03:17;;;;;;;3.55;3.25;;;;;;;;;;5069304;28;24801;-46
2022/08/12 08:05:45;;;;;;;3.30;2.95;;;;;;;;;;5067291;28;24961;-45
2022/08/12 08:08:19;;;;;;;4.03;3.63;;;;;;;;;;5089853;28;24395;-46
2022/08/12 08:10:45;;;;;;;5.10;3.70;;;;;;;;;;5070976;28;24983;-46
2022/08/12 08:13:11;;;;;;;3.70;2.85;;;;;;;;;;5069243;28;24398;-45
2022/08/12 08:15:38;;;;;;;3.20;2.90;;;;;;;;;;5066856;28;24434;-47
2022/08/12 08:18:04;;;;;;;3.63;3.00;;;;;;;;;;5069999;28;24398;-46
2022/08/12 08:20:32;;;;;;;4.60;3.05;;;;;;;;;;5068378;28;24853;-46
2022/08/12 08:22:58;;;;;;;2.88;2.60;;;;;;;;;;5069244;28;24379;-46
2022/08/12 08:25:30;;;;;;;3.25;2.67;;;;;;;;;;5068653;28;24884;-47
2022/08/12 08:27:55;;;;;;;3.03;2.80;;;;;;;;;;5072039;28;24549;-46
2022/08/12 08:30:21;;;;;;;2.60;2.40;;;;;;;;;;5068290;28;24522;-47
2022/08/12 08:32:47;;;;;;;2.80;2.60;;;;;;;;;;5068518;28;24430;-46
2022/08/12 08:35:13;;;;;;;3.67;2.80;;;;;;;;;;5072610;28;24472;-46
2022/08/12 08:37:38;;;;;;;2.80;2.60;;;;;;;;;;5084993;28;25081;-46
2022/08/12 08:42:35;;;;;;;2.70;2.50;;;;;;;;;;5089341;28;24421;-45
2022/08/12 08:42:49;;;;;;;2.60;2.40;;;;;;;;;;5088605;28;24944;-46
2022/08/12 08:45:15;;;;;;;2.90;2.70;;;;;;;;;;5088606;28;24443;-46
2022/08/12 08:47:46;;;;;;;2.50;2.30;;;;;;;;;;5088753;28;24426;-46
2022/08/12 08:50:14;;;;;;;3.20;2.50;;;;;;;;;;5088621;28;21211;-47
2022/08/12 08:52:40;;;;;;;3.00;2.70;;;;;;;;;;5074117;28;24418;-46
2022/08/12 08:55:05;;;;;;;2.80;2.60;;;;;;;;;;5089078;28;24437;-46
2022/08/12 08:57:31;;;;;;;2.70;2.30;;;;;;;;;;5086778;28;24386;-46
2022/08/12 08:59:56;;;;;;;2.70;2.50;;;;;;;;;;5088795;28;24444;-46
2022/08/12 09:02:21;;;;;;;3.00;2.53;;;;;;;;;;5079706;28;24423;-46
2022/08/12 09:04:46;;;;;;;3.38;2.55;;;;;;;;;;5068385;28;24788;-46
2022/08/12 09:07:12;;;;;;;2.15;2.00;;;;;;;;;;5085286;28;24745;-46
2022/08/12 09:09:37;;;;;;;2.63;2.43;;;;;;;;;;5088672;28;24386;-46
2022/08/12 09:14:47;;;;;;;2.60;2.08;;;;;;;;;;5088145;28;24478;-46
2022/08/12 09:17:12;;;;;;;2.20;1.90;;;;;;;;;;5086646;28;24403;-45
2022/08/12 09:19:37;;;;;;;2.00;1.90;;;;;;;;;;5088161;28;24475;-46
2022/08/12 09:22:03;;;;;;;2.10;2.00;;;;;;;;;;5088570;28;24725;-47
2022/08/12 09:24:28;;;;;;;2.47;2.03;;;;;;;;;;5088133;28;24971;-46
2022/08/12 09:26:53;;;;;;;2.10;2.00;;;;;;;;;;5086044;28;25126;-46
2022/08/12 09:29:21;;;;;;;2.53;2.20;;;;;;;;;;5088551;28;24940;-47
2022/08/12 09:31:46;;;;;;;2.10;1.98;;;;;;;;;;5087968;28;24409;-48
2022/08/12 09:34:12;;;;;;;2.03;1.90;;;;;;;;;;5081708;28;24426;-45
2022/08/12 09:36:37;;;;;;;2.50;2.20;;;;;;;;;;5067860;28;24490;-46
2022/08/12 09:39:03;;;;;;;1.90;1.80;;;;;;;;;;5068073;28;24432;-46
2022/08/12 09:41:36;;;;;;;2.38;2.00;;;;;;;;;;5067646;28;24387;-47
2022/08/12 09:46:45;;;;;;;2.20;2.00;;;;;;;;;;5066249;28;24536;-46
2022/08/12 09:49:10;;;;;;;2.70;2.10;;;;;;;;;;5067708;28;24797;-47
2022/08/12 09:51:36;;;;;;;2.30;2.10;;;;;;;;;;5067477;28;24477;-46
2022/08/12 09:54:01;;;;;;;2.13;2.03;;;;;;;;;;5067619;28;24406;-46
2022/08/12 09:56:30;;;;;;;3.45;2.45;;;;;;;;;;5080238;28;24418;-46
2022/08/12 09:58:56;;;;;;;3.80;2.25;;;;;;;;;;5087503;28;24509;-47
2022/08/12 10:01:22;;;;;;;2.57;2.47;;;;;;;;;;5087722;28;25004;-46
2022/08/12 10:03:48;;;;;;;2.70;2.50;;;;;;;;;;5087330;28;24412;-45
2022/08/12 10:06:13;;;;;;;2.60;2.40;;;;;;;;;;5087653;28;24428;-46
2022/08/12 10:08:38;;;;;;;2.70;2.50;;;;;;;;;;5087630;28;24917;-46
2022/08/12 10:13:51;;;;;;;2.72;2.53;;;;;;;;;;5087193;28;24413;-46
2022/08/12 10:16:21;;;;;;;3.17;2.60;;;;;;;;;;5087837;28;24397;-50
2022/08/12 10:18:49;;;;;;;3.20;2.90;;;;;;;;;;5087168;28;24418;-46
2022/08/12 10:21:16;;;;;;;4.10;2.60;;;;;;;;;;5075323;28;24419;-46
2022/08/12 10:23:42;;;;;;;2.70;2.50;;;;;;;;;;5067140;28;24383;-46
2022/08/12 10:31:37;;;;;;;3.00;2.80;;;;;;;;;;5064169;28;24481;-47
2022/08/12 10:34:04;;;;;;;2.87;2.67;;;;;;;;;;5066810;28;24936;-47
2022/08/12 10:36:30;;;;;;;3.78;2.50;;;;;;;;;;5065505;28;24421;-47
2022/08/12 10:38:55;;;;;;;3.13;2.58;;;;;;;;;;5066526;28;24425;-46
2022/08/12 10:44:05;;;;;;;2.40;2.20;;;;;;;;;;5066563;28;24382;-47
2022/08/12 10:46:30;;;;;;;2.30;2.10;;;;;;;;;;5081986;28;24410;-46
2022/08/12 10:48:55;;;;;;;2.70;2.50;;;;;;;;;;5086816;28;24720;-47
2022/08/12 10:51:21;;;;;;;3.47;2.60;;;;;;;;;;5087104;28;24390;-46
2022/08/12 10:53:46;;;;;;;3.70;2.73;;;;;;;;;;5067868;28;24559;-46
2022/08/12 10:56:14;;;;;;;2.40;2.30;;;;;;;;;;5077298;28;24773;-46
2022/08/12 10:58:40;;;;;;;2.72;2.55;;;;;;;;;;5086795;28;25001;-46
2022/08/12 11:01:06;;;;;;;3.27;2.93;;;;;;;;;;5086816;28;24467;-46
2022/08/12 11:03:35;;;;;;;2.80;2.60;;;;;;;;;;5086681;28;24411;-46
2022/08/12 11:06:01;;;;;;;3.92;2.40;;;;;;;;;;5086621;28;25121;-46
2022/08/12 11:08:26;;;;;;;2.60;2.40;;;;;;;;;;5086545;28;24429;-46
2022/08/12 11:10:52;;;;;;;3.23;2.60;;;;;;;;;;5073408;28;24789;-45
2022/08/12 11:13:19;;;;;;;3.00;2.50;;;;;;;;;;5066395;28;24399;-46
2022/08/12 11:15:44;;;;;;;2.90;2.50;;;;;;;;;;5066366;28;24383;-46
2022/08/12 11:18:10;;;;;;;3.20;2.90;;;;;;;;;;5066313;28;24418;-46
2022/08/12 11:20:35;;;;;;;3.40;2.60;;;;;;;;;;5066431;28;24456;-46
2022/08/12 11:23:03;;;;;;;2.75;2.55;;;;;;;;;;5066614;28;24462;-46
2022/08/12 11:25:28;;;;;;;2.83;2.60;;;;;;;;;;5066298;28;24513;-46
2022/08/12 11:27:53;;;;;;;2.80;2.60;;;;;;;;;;5066210;28;24991;-45
2022/08/12 11:30:19;;;;;;;2.60;2.50;;;;;;;;;;5066601;28;24442;-46
2022/08/12 11:32:44;;;;;;;2.83;2.63;;;;;;;;;;5067535;28;24916;-47
2022/08/12 11:35:09;;;;;;;2.30;2.10;;;;;;;;;;5069639;28;24411;-47
2022/08/12 11:37:36;;;;;;;2.50;2.30;;;;;;;;;;5070116;28;24490;-46
2022/08/12 11:40:02;;;;;;;2.80;2.60;;;;;;;;;;5070191;28;24935;-46
2022/08/12 11:42:27;;;;;;;2.80;2.50;;;;;;;;;;5069982;28;24402;-47
2022/08/12 11:44:52;;;;;;;3.03;2.73;;;;;;;;;;5070047;28;24491;-47
2022/08/12 11:47:17;;;;;;;2.83;2.63;;;;;;;;;;5069637;28;24418;-46
2022/08/12 11:49:42;;;;;;;2.67;2.50;;;;;;;;;;5069926;28;24932;-46
2022/08/12 11:52:07;;;;;;;3.15;2.53;;;;;;;;;;5069720;28;24414;-46
2022/08/12 11:54:32;;;;;;;2.90;2.37;;;;;;;;;;5069826;28;24394;-46
2022/08/12 11:56:58;;;;;;;2.70;2.50;;;;;;;;;;5082414;28;24517;-46
2022/08/12 11:59:23;;;;;;;3.27;2.60;;;;;;;;;;5088425;28;24436;-47
2022/08/12 12:01:48;;;;;;;2.92;2.70;;;;;;;;;;5089875;28;24398;-47
2022/08/12 12:04:14;;;;;;;2.80;2.60;;;;;;;;;;5089759;28;24394;-46
2022/08/12 12:06:39;;;;;;;2.83;2.63;;;;;;;;;;5089493;28;24917;-46
2022/08/12 12:09:04;;;;;;;3.10;2.80;;;;;;;;;;5089927;28;24397;-46
2022/08/12 12:11:29;;;;;;;2.60;2.40;;;;;;;;;;5089825;28;24464;-46
2022/08/12 12:13:54;;;;;;;3.13;2.83;;;;;;;;;;5089787;28;24837;-46
2022/08/12 12:16:20;;;;;;;3.90;2.70;;;;;;;;;;5088642;28;24465;-46
2022/08/12 12:18:45;;;;;;;3.80;2.80;;;;;;;;;;5089516;28;24414;-46
2022/08/12 12:21:10;;;;;;;3.37;3.10;;;;;;;;;;5090021;28;24411;-46
2022/08/12 12:23:35;;;;;;;3.20;3.00;;;;;;;;;;5074794;28;24464;-45
2022/08/12 12:26:01;;;;;;;2.90;2.60;;;;;;;;;;5069187;28;24969;-45
2022/08/12 12:28:26;;;;;;;2.87;2.63;;;;;;;;;;5069499;28;24441;-45
2022/08/12 12:30:51;;;;;;;3.40;2.70;;;;;;;;;;5065758;28;24476;-45
2022/08/12 12:33:16;;;;;;;2.92;2.50;;;;;;;;;;5083891;28;24875;-46
2022/08/12 12:35:41;;;;;;;4.10;2.95;;;;;;;;;;5088787;28;25028;-47
2022/08/12 12:38:07;;;;;;;3.08;2.88;;;;;;;;;;5088637;28;24764;-45
2022/08/12 12:40:33;;;;;;;3.20;3.00;;;;;;;;;;5089354;28;24379;-45
2022/08/12 12:42:59;;;;;;;2.80;2.60;;;;;;;;;;5088566;28;24382;-45
2022/08/12 12:45:24;;;;;;;3.00;2.80;;;;;;;;;;5089211;28;24438;-46
2022/08/12 12:47:55;;;;;;;3.00;2.80;;;;;;;;;;5088327;28;24417;-46
2022/08/12 12:50:21;;;;;;;2.97;2.78;;;;;;;;;;5089168;28;24393;-45
2022/08/12 12:52:46;;;;;;;3.80;2.80;;;;;;;;;;5086455;28;24427;-46
2022/08/12 12:55:15;;;;;;;3.35;3.05;;;;;;;;;;5069947;28;24398;-45
2022/08/12 12:57:41;;;;;;;3.05;2.60;;;;;;;;;;5068314;28;24457;-45
2022/08/12 13:00:17;;;;;;;2.80;2.60;;;;;;;;;;5069431;28;24399;-45
2022/08/12 13:02:51;;;;;;;2.70;2.60;;;;;;;;;;5088729;28;24391;-46
2022/08/12 13:05:37;;;;;;;4.80;2.60;;;;;;;;;;5087536;28;25023;-46
2022/08/12 13:08:16;;;;;;;2.60;2.40;;;;;;;;;;5088082;28;24445;-46
2022/08/12 13:10:41;;;;;;;3.15;2.75;;;;;;;;;;5088014;28;24398;-46
2022/08/12 13:13:06;;;;;;;2.90;2.60;;;;;;;;;;5088204;28;24391;-46
2022/08/12 13:15:32;;;;;;;3.50;2.50;;;;;;;;;;5088550;28;24485;-46
2022/08/12 13:18:02;;;;;;;2.60;2.50;;;;;;;;;;5088266;28;24414;-46
2022/08/12 13:20:30;;;;;;;2.53;2.33;;;;;;;;;;5088574;28;24410;-46
2022/08/12 13:22:55;;;;;;;5.50;2.58;;;;;;;;;;5086374;28;24414;-46
2022/08/12 13:25:21;;;;;;;2.70;2.50;;;;;;;;;;5087487;28;24409;-46
2022/08/12 13:27:47;;;;;;;2.60;2.40;;;;;;;;;;5086991;28;24379;-47
2022/08/12 13:30:14;;;;;;;2.60;2.40;;;;;;;;;;5087891;28;24410;-46
2022/08/12 13:32:40;;;;;;;2.83;2.63;;;;;;;;;;5087484;28;24981;-46
2022/08/12 13:35:05;;;;;;;3.20;2.50;;;;;;;;;;5088116;28;24397;-46
2022/08/12 13:37:30;;;;;;;3.10;2.80;;;;;;;;;;5087722;28;24382;-46
2022/08/12 13:39:56;;;;;;;2.90;2.60;;;;;;;;;;5088160;28;24457;-46
2022/08/12 13:42:24;;;;;;;2.80;2.50;;;;;;;;;;5087821;28;24753;-46
2022/08/12 13:44:50;;;;;;;2.70;2.50;;;;;;;;;;5088006;28;24408;-46
2022/08/12 13:47:15;;;;;;;6.53;5.93;;;;;;;;;;5087900;28;24505;-46
2022/08/12 13:49:40;;;;;;;5.47;4.40;;;;;;;;;;5087861;28;25041;-46
2022/08/12 13:52:05;;;;;;;2.70;2.50;;;;;;;;;;5087894;28;24394;-46
2022/08/12 13:54:31;;;;;;;2.50;2.40;;;;;;;;;;5072326;28;24509;-46
2022/08/12 13:56:56;;;;;;;2.60;2.40;;;;;;;;;;5087063;28;24490;-46
2022/08/12 13:59:21;;;;;;;2.50;2.30;;;;;;;;;;5086847;28;25051;-46
2022/08/12 14:01:50;;;;;;;2.90;2.70;;;;;;;;;;5087771;28;24893;-47
2022/08/12 14:04:15;;;;;;;3.63;2.70;;;;;;;;;;5087783;28;24405;-46
2022/08/12 14:06:40;;;;;;;4.10;3.70;;;;;;;;;;5087363;28;24390;-46
2022/08/12 14:09:06;;;;;;;3.87;2.60;;;;;;;;;;5087514;28;24447;-46
2022/08/12 14:11:32;;;;;;;2.10;2.00;;;;;;;;;;5087957;28;24761;-47
2022/08/12 14:13:58;;;;;;;2.57;2.40;;;;;;;;;;5087202;28;24394;-45
2022/08/12 14:16:24;;;;;;;2.40;2.20;;;;;;;;;;5087648;28;24452;-46
2022/08/12 14:18:49;;;;;;;2.45;2.20;;;;;;;;;;5085261;28;24504;-46
2022/08/12 14:21:15;;;;;;;2.60;2.40;;;;;;;;;;5087664;28;24390;-44
2022/08/12 14:23:43;;;;;;;2.38;2.20;;;;;;;;;;5087030;28;24500;-46
2022/08/12 14:26:11;;;;;;;2.10;2.00;;;;;;;;;;5087305;28;24475;-46
2022/08/12 14:28:37;;;;;;;2.80;2.60;;;;;;;;;;5087358;28;24401;-48
2022/08/12 14:31:09;;;;;;;2.40;2.20;;;;;;;;;;5083894;28;24916;-46
2022/08/12 14:33:40;;;;;;;2.60;2.40;;;;;;;;;;5086361;28;24471;-46
2022/08/12 14:36:07;;;;;;;2.53;2.10;;;;;;;;;;5063885;28;24975;-47
2022/08/12 14:38:38;;;;;;;2.70;2.25;;;;;;;;;;5063671;28;24820;-46
2022/08/12 14:41:03;;;;;;;2.60;2.20;;;;;;;;;;5064753;28;24949;-47
2022/08/12 14:43:32;;;;;;;2.90;2.70;;;;;;;;;;5072639;28;24426;-46
2022/08/12 14:45:57;;;;;;;2.40;2.30;;;;;;;;;;5067271;28;24429;-47
2022/08/12 14:48:22;;;;;;;2.90;2.58;;;;;;;;;;5065800;28;25176;-47
2022/08/12 14:50:49;;;;;;;3.30;2.50;;;;;;;;;;5065013;28;24414;-47
2022/08/12 14:53:16;;;;;;;2.03;1.92;;;;;;;;;;5064328;28;24391;-47
2022/08/12 14:55:43;;;;;;;2.30;2.20;;;;;;;;;;5064819;28;24656;-47
2022/08/12 14:58:11;;;;;;;2.58;2.42;;;;;;;;;;5071084;28;24418;-47
2022/08/12 15:03:26;;;;;;;2.38;2.17;;;;;;;;;;5066936;28;24453;-47
2022/08/12 15:05:52;;;;;;;2.90;2.70;;;;;;;;;;5066662;28;24936;-47
2022/08/12 15:08:22;;;;;;;2.30;2.10;;;;;;;;;;5070035;28;24407;-47
2022/08/12 15:10:47;;;;;;;2.25;2.10;;;;;;;;;;5080995;28;24418;-47
2022/08/12 15:13:12;;;;;;;2.70;2.40;;;;;;;;;;5069145;28;25015;-48
2022/08/12 15:15:40;;;;;;;3.30;2.35;;;;;;;;;;5070476;28;24399;-47
2022/08/12 15:18:06;;;;;;;2.50;2.30;;;;;;;;;;5070141;28;24456;-47
2022/08/12 15:20:31;;;;;;;2.60;2.33;;;;;;;;;;5070644;28;24395;-47
2022/08/12 15:22:57;;;;;;;2.30;2.20;;;;;;;;;;5070255;28;24383;-47
2022/08/12 15:25:22;;;;;;;3.25;2.47;;;;;;;;;;5070804;28;24391;-47
2022/08/12 15:27:48;;;;;;;2.40;2.30;;;;;;;;;;5086665;28;24764;-46
2022/08/12 15:30:15;;;;;;;2.30;2.20;;;;;;;;;;5090571;28;24414;-47
2022/08/12 15:32:40;;;;;;;2.22;2.13;;;;;;;;;;5090456;28;24451;-46
2022/08/12 15:35:05;;;;;;;2.80;2.50;;;;;;;;;;5090311;28;24382;-46
2022/08/12 15:37:31;;;;;;;2.60;2.50;;;;;;;;;;5090230;28;24469;-47
2022/08/12 15:39:56;;;;;;;2.30;2.20;;;;;;;;;;5088381;28;24433;-46
2022/08/12 15:42:23;;;;;;;2.22;2.08;;;;;;;;;;5070581;28;24465;-46
2022/08/12 15:44:48;;;;;;;2.70;2.20;;;;;;;;;;5078112;28;24883;-45
2022/08/12 15:47:14;;;;;;;3.20;2.40;;;;;;;;;;5088189;28;24489;-46
2022/08/12 15:49:40;;;;;;;3.25;2.40;;;;;;;;;;5090081;28;24904;-46
2022/08/12 15:52:05;;;;;;;2.80;2.60;;;;;;;;;;5086381;28;25043;-46
2022/08/12 15:54:30;;;;;;;2.50;2.30;;;;;;;;;;5081535;28;24461;-46
2022/08/12 15:56:55;;;;;;;2.80;2.60;;;;;;;;;;5089867;28;24418;-45
2022/08/12 15:59:21;;;;;;;2.65;2.53;;;;;;;;;;5089719;28;24425;-46
2022/08/12 16:01:46;;;;;;;2.40;2.30;;;;;;;;;;5089805;28;24741;-45
2022/08/12 16:04:12;;;;;;;2.33;2.20;;;;;;;;;;5090191;28;24454;-47
2022/08/12 16:06:37;;;;;;;3.40;2.50;;;;;;;;;;5089790;28;24398;-46
2022/08/12 16:09:02;;;;;;;3.43;2.60;;;;;;;;;;5090051;28;25055;-45
2022/08/12 16:11:29;;;;;;;2.67;2.57;;;;;;;;;;5088586;28;24425;-46
2022/08/12 16:13:54;;;;;;;2.78;2.30;;;;;;;;;;5089277;28;24466;-46
2022/08/12 16:16:19;;;;;;;2.40;2.20;;;;;;;;;;5089537;28;24395;-45
2022/08/12 16:18:45;;;;;;;2.50;2.30;;;;;;;;;;5070712;28;24442;-46
2022/08/12 16:21:10;;;;;;;2.37;2.17;;;;;;;;;;5068519;28;24737;-46